createdAt,value
2018-07-23T00:01:32.242Z,17.10
2018-07-23T00:04:01.201Z,17.00
2018-07-23T00:06:30.296Z,17.00
2018-07-23T00:09:01.684Z,17.00
2018-07-23T00:11:30.647Z,16.90
2018-07-23T00:13:59.225Z,17.00
2018-07-23T00:16:27.790Z,17.00
2018-07-23T00:18:56.344Z,16.90
2018-07-23T00:21:25.132Z,16.80
2018-07-23T00:23:53.766Z,16.80
2018-07-23T00:26:22.448Z,16.80
2018-07-23T00:28:51.125Z,16.80
2018-07-23T00:31:20.247Z,16.90
2018-07-23T00:33:48.992Z,16.80
2018-07-23T00:36:17.540Z,16.70
2018-07-23T00:38:46.390Z,16.50
2018-07-23T00:41:15.051Z,16.60
2018-07-23T00:43:43.722Z,16.60
2018-07-23T00:46:12.202Z,16.50
2018-07-23T00:48:40.719Z,16.50
2018-07-23T00:51:09.382Z,16.30
2018-07-23T00:53:37.940Z,16.20
2018-07-23T00:56:06.652Z,16.00
2018-07-23T00:58:35.217Z,16.00
2018-07-23T01:01:03.932Z,16.00
2018-07-23T01:06:00.866Z,15.90
2018-07-23T01:08:29.363Z,15.90
2018-07-23T01:10:58.031Z,15.90
2018-07-23T01:13:26.864Z,16.00
2018-07-23T01:15:55.389Z,16.00
2018-07-23T01:18:23.925Z,15.90
2018-07-23T01:20:52.542Z,15.90
2018-07-23T01:23:21.008Z,15.90
2018-07-23T01:25:49.771Z,15.70
2018-07-23T01:28:18.519Z,15.70
2018-07-23T01:30:47.048Z,15.60
2018-07-23T01:33:22.223Z,15.50
2018-07-23T01:35:50.819Z,15.50
2018-07-23T01:38:19.347Z,15.50
2018-07-23T01:40:48.020Z,15.60
2018-07-23T01:43:16.543Z,15.40
2018-07-23T01:45:45.057Z,15.30
2018-07-23T01:48:13.682Z,15.30
2018-07-23T01:50:42.567Z,15.30
2018-07-23T01:53:11.093Z,15.20
2018-07-23T01:55:39.837Z,15.20
2018-07-23T01:58:08.365Z,15.60
2018-07-23T02:00:36.853Z,15.20
2018-07-23T02:03:05.693Z,15.20
2018-07-23T02:05:34.492Z,15.20
2018-07-23T02:08:03.371Z,15.20
2018-07-23T02:10:31.968Z,15.00
2018-07-23T02:13:00.937Z,15.00
2018-07-23T02:15:29.467Z,15.00
2018-07-23T02:17:58.184Z,14.90
2018-07-23T02:20:26.856Z,14.90
2018-07-23T02:22:55.349Z,14.80
2018-07-23T02:25:23.813Z,14.70
2018-07-23T02:27:52.370Z,14.70
2018-07-23T02:30:21.094Z,14.70
2018-07-23T02:32:49.737Z,14.70
2018-07-23T02:35:18.544Z,14.80
2018-07-23T02:37:47.363Z,14.80
2018-07-23T02:40:15.866Z,14.70
2018-07-23T02:42:44.368Z,14.70
2018-07-23T02:45:12.876Z,14.70
2018-07-23T02:47:41.598Z,14.60
2018-07-23T02:50:10.313Z,14.70
2018-07-23T02:52:38.807Z,14.70
2018-07-23T02:55:07.531Z,14.70
2018-07-23T02:57:36.047Z,14.60
2018-07-23T03:00:05.010Z,14.50
2018-07-23T03:02:33.492Z,14.40
2018-07-23T03:05:02.000Z,14.30
2018-07-23T03:07:30.634Z,14.30
2018-07-23T03:09:59.459Z,14.30
2018-07-23T03:12:27.967Z,14.30
2018-07-23T03:14:56.596Z,14.40
2018-07-23T03:17:25.131Z,14.40
2018-07-23T03:19:53.830Z,14.50
2018-07-23T03:22:22.305Z,14.50
2018-07-23T03:24:50.834Z,14.40
2018-07-23T03:27:19.416Z,14.30
2018-07-23T03:29:48.033Z,14.20
2018-07-23T03:32:16.752Z,14.10
2018-07-23T03:34:45.405Z,14.10
2018-07-23T03:37:13.871Z,14.10
2018-07-23T03:39:43.180Z,14.00
2018-07-23T03:42:12.044Z,13.90
2018-07-23T03:44:40.710Z,13.90
2018-07-23T03:47:09.342Z,13.80
2018-07-23T03:49:37.853Z,13.70
2018-07-23T03:52:06.681Z,13.80
2018-07-23T03:54:35.239Z,13.80
2018-07-23T03:57:03.812Z,13.90
2018-07-23T03:59:32.467Z,13.90
2018-07-23T04:02:00.992Z,13.90
2018-07-23T04:04:29.547Z,13.90
2018-07-23T04:06:58.060Z,13.90
2018-07-23T04:09:26.664Z,13.90
2018-07-23T04:11:55.214Z,13.90
2018-07-23T04:14:23.972Z,13.70
2018-07-23T04:16:52.868Z,13.70
2018-07-23T04:19:21.579Z,13.80
2018-07-23T04:21:50.233Z,13.80
2018-07-23T04:24:18.775Z,13.80
2018-07-23T04:26:47.302Z,13.70
2018-07-23T04:29:15.902Z,13.80
2018-07-23T04:31:44.896Z,13.80
2018-07-23T04:34:13.394Z,13.90
2018-07-23T04:36:41.871Z,13.90
2018-07-23T04:39:10.579Z,14.10
2018-07-23T04:41:39.082Z,14.20
2018-07-23T04:46:35.983Z,14.40
2018-07-23T04:49:04.603Z,14.40
2018-07-23T04:51:33.110Z,14.40
2018-07-23T04:54:01.895Z,14.40
2018-07-23T04:56:30.535Z,14.60
2018-07-23T04:58:59.459Z,14.80
2018-07-23T05:01:28.187Z,15.00
2018-07-23T05:03:56.689Z,15.20
2018-07-23T05:06:25.195Z,15.40
2018-07-23T05:08:53.987Z,15.50
2018-07-23T05:11:22.540Z,15.50
2018-07-23T05:13:51.059Z,15.50
2018-07-23T05:16:19.633Z,15.60
2018-07-23T05:18:48.189Z,15.60
2018-07-23T05:21:16.864Z,15.60
2018-07-23T05:23:45.472Z,15.60
2018-07-23T05:26:14.047Z,15.70
2018-07-23T05:28:42.775Z,15.60
2018-07-23T05:31:11.306Z,15.70
2018-07-23T05:33:39.960Z,15.80
2018-07-23T05:36:08.587Z,16.00
2018-07-23T05:38:37.067Z,16.00
2018-07-23T05:41:05.833Z,16.10
2018-07-23T05:43:34.364Z,16.20
2018-07-23T05:46:02.874Z,16.30
2018-07-23T05:48:31.638Z,16.40
2018-07-23T05:51:00.159Z,16.40
2018-07-23T05:53:28.653Z,16.40
2018-07-23T05:55:57.139Z,16.50
2018-07-23T05:58:25.747Z,16.60
2018-07-23T06:00:54.284Z,16.60
2018-07-23T06:03:23.028Z,18.90
2018-07-23T06:05:51.720Z,16.80
2018-07-23T06:08:20.444Z,16.80
2018-07-23T06:10:49.168Z,16.90
2018-07-23T06:13:17.698Z,17.00
2018-07-23T06:15:46.218Z,17.00
2018-07-23T06:18:15.176Z,17.20
2018-07-23T06:20:43.697Z,17.20
2018-07-23T06:23:12.680Z,17.30
2018-07-23T06:25:41.323Z,17.40
2018-07-23T06:28:10.255Z,17.50
2018-07-23T06:30:38.771Z,17.60
2018-07-23T06:33:07.668Z,17.70
2018-07-23T06:35:36.201Z,17.70
2018-07-23T06:38:04.856Z,17.80
2018-07-23T06:40:33.456Z,17.80
2018-07-23T06:43:02.078Z,18.00
2018-07-23T06:45:30.579Z,18.00
2018-07-23T06:47:59.108Z,18.20
2018-07-23T06:50:27.687Z,18.20
2018-07-23T06:55:24.832Z,18.50
2018-07-23T06:57:53.739Z,18.70
2018-07-23T07:02:51.207Z,18.90
2018-07-23T07:05:19.695Z,19.00
2018-07-23T07:07:48.443Z,19.20
2018-07-23T07:10:16.956Z,19.30
2018-07-23T07:12:45.688Z,19.40
2018-07-23T07:15:14.599Z,19.50
2018-07-23T07:17:43.424Z,19.70
2018-07-23T07:20:12.412Z,19.90
2018-07-23T07:22:41.091Z,20.10
2018-07-23T07:25:09.955Z,20.10
2018-07-23T07:27:38.567Z,20.00
2018-07-23T07:30:08.489Z,20.10
2018-07-23T07:32:37.268Z,20.30
2018-07-23T07:35:06.339Z,20.40
2018-07-23T07:37:34.862Z,20.60
2018-07-23T07:40:03.723Z,20.50
2018-07-23T07:42:32.518Z,20.50
2018-07-23T07:45:01.368Z,20.50
2018-07-23T07:47:29.913Z,20.80
2018-07-23T07:49:58.714Z,20.90
2018-07-23T07:52:27.299Z,21.00
2018-07-23T07:54:56.083Z,20.80
2018-07-23T07:57:24.780Z,20.80
2018-07-23T07:59:53.575Z,21.00
2018-07-23T08:02:22.277Z,21.20
2018-07-23T08:04:50.921Z,21.20
2018-07-23T08:07:19.583Z,21.20
2018-07-23T08:09:48.430Z,21.30
2018-07-23T08:12:17.404Z,21.40
2018-07-23T08:14:46.391Z,21.60
2018-07-23T08:17:15.335Z,21.60
2018-07-23T08:19:43.885Z,21.60
2018-07-23T08:22:12.526Z,21.60
2018-07-23T08:29:37.705Z,21.90
2018-07-23T08:32:07.038Z,21.90
2018-07-23T08:34:35.843Z,22.10
2018-07-23T08:37:04.463Z,17.90
2018-07-23T08:39:33.844Z,22.30
2018-07-23T08:42:02.488Z,22.40
2018-07-23T08:44:31.105Z,22.40
2018-07-23T08:46:59.940Z,22.50
2018-07-23T08:49:28.580Z,22.50
2018-07-23T08:51:57.299Z,22.50
2018-07-23T08:54:26.047Z,22.70
2018-07-23T08:56:55.067Z,22.60
2018-07-23T08:59:23.948Z,22.80
2018-07-23T09:01:52.701Z,22.90
2018-07-23T09:04:21.251Z,23.00
2018-07-23T09:06:50.088Z,22.40
2018-07-23T09:09:18.699Z,23.00
2018-07-23T09:11:47.376Z,23.30
2018-07-23T09:14:16.160Z,23.20
2018-07-23T09:16:44.999Z,23.30
2018-07-23T09:19:13.603Z,23.50
2018-07-23T09:21:42.384Z,23.60
2018-07-23T09:24:11.188Z,23.70
2018-07-23T09:26:40.043Z,23.90
2018-07-23T09:29:08.847Z,24.20
2018-07-23T09:31:37.591Z,24.30
2018-07-23T09:34:06.353Z,24.30
2018-07-23T09:39:03.358Z,24.70
2018-07-23T09:41:31.985Z,24.60
2018-07-23T09:44:00.768Z,24.90
2018-07-23T09:48:57.861Z,24.90
2018-07-23T09:51:26.508Z,25.10
2018-07-23T09:53:55.504Z,25.30
2018-07-23T09:56:24.322Z,25.40
2018-07-23T09:58:53.354Z,25.50
2018-07-23T10:01:22.427Z,25.70
2018-07-23T10:03:50.936Z,25.80
2018-07-23T10:06:19.633Z,26.10
2018-07-23T10:08:48.316Z,26.40
2018-07-23T10:11:17.430Z,26.50
2018-07-23T13:04:15.510Z,35.90
2018-07-23T13:06:44.299Z,36.00
2018-07-23T13:09:13.707Z,36.70
2018-07-23T13:11:42.354Z,38.40
2018-07-23T13:14:11.023Z,37.00
2018-07-23T13:16:39.761Z,37.30
2018-07-23T13:19:08.408Z,39.30
2018-07-23T13:21:37.085Z,38.90
2018-07-23T13:24:06.090Z,37.60
2018-07-23T13:26:35.224Z,37.20
2018-07-23T13:29:03.807Z,36.50
2018-07-23T13:31:32.431Z,36.00
2018-07-23T13:34:00.978Z,34.80
2018-07-23T13:36:29.726Z,35.10
2018-07-23T13:38:58.246Z,36.10
2018-07-23T13:41:27.314Z,37.00
2018-07-23T13:43:56.012Z,36.60
2018-07-23T13:46:24.946Z,34.90
2018-07-23T13:48:53.578Z,34.40
2018-07-23T13:51:22.399Z,35.20
2018-07-23T13:53:51.215Z,35.10
2018-07-23T13:56:20.003Z,35.40
2018-07-23T13:58:48.763Z,36.00
2018-07-23T14:01:17.579Z,36.60
2018-07-23T14:03:46.209Z,37.60
2018-07-23T14:06:14.976Z,36.80
2018-07-23T14:08:43.551Z,37.80
2018-07-23T14:11:12.272Z,38.80
2018-07-23T14:13:40.834Z,39.30
2018-07-23T14:16:09.535Z,40.10
2018-07-23T14:18:38.335Z,36.70
2018-07-23T14:21:07.294Z,37.00
2018-07-23T14:23:36.059Z,37.00
2018-07-23T14:26:04.581Z,37.50
2018-07-23T14:28:33.264Z,37.50
2018-07-23T14:31:02.084Z,37.90
2018-07-23T14:33:30.672Z,37.00
2018-07-23T14:35:59.235Z,36.50
2018-07-23T14:38:27.836Z,36.80
2018-07-23T14:40:56.728Z,35.70
2018-07-23T14:43:25.271Z,35.30
2018-07-23T14:45:54.169Z,34.40
2018-07-23T14:48:23.032Z,35.00
2018-07-23T14:50:51.605Z,36.10
2018-07-23T14:53:20.308Z,36.60
2018-07-23T14:55:49.017Z,36.90
2018-07-23T14:58:17.765Z,38.90
2018-07-23T15:00:46.806Z,39.30
2018-07-23T15:03:15.374Z,39.80
2018-07-23T15:05:44.123Z,39.30
2018-07-23T15:08:13.107Z,39.20
2018-07-23T15:10:41.740Z,39.80
2018-07-23T15:13:10.565Z,39.50
2018-07-23T15:15:39.549Z,39.00
2018-07-23T15:18:08.328Z,39.50
2018-07-23T15:20:37.263Z,41.60
2018-07-23T15:23:06.367Z,40.60
2018-07-23T15:25:35.164Z,40.10
2018-07-23T15:28:04.094Z,40.80
2018-07-23T15:30:32.952Z,39.70
2018-07-23T15:33:01.869Z,37.40
2018-07-23T15:35:30.697Z,35.40
2018-07-23T15:37:59.670Z,35.20
2018-07-23T15:40:28.350Z,34.50
2018-07-23T15:42:57.207Z,34.60
2018-07-23T15:45:25.855Z,33.80
2018-07-23T15:47:54.620Z,33.00
2018-07-23T15:50:23.299Z,32.70
2018-07-23T15:52:51.976Z,32.80
2018-07-23T15:55:20.973Z,32.80
2018-07-23T15:57:49.502Z,32.60
2018-07-23T16:00:18.907Z,32.00
2018-07-23T16:02:47.925Z,30.90
2018-07-23T16:05:16.795Z,30.30
2018-07-23T16:07:45.398Z,30.30
2018-07-23T16:10:13.993Z,29.90
2018-07-23T16:12:42.860Z,29.30
2018-07-23T16:15:11.412Z,29.50
2018-07-23T16:17:40.379Z,29.40
2018-07-23T16:20:09.268Z,29.60
2018-07-23T16:22:38.148Z,29.50
2018-07-23T16:25:07.588Z,29.50
2018-07-23T16:27:36.443Z,29.20
2018-07-23T16:30:06.089Z,29.30
2018-07-23T16:32:34.823Z,29.50
2018-07-23T16:35:03.550Z,29.70
2018-07-23T16:37:32.419Z,29.60
2018-07-23T16:40:01.186Z,29.30
2018-07-23T16:42:29.876Z,29.30
2018-07-23T16:44:58.924Z,29.40
2018-07-23T16:47:27.882Z,29.60
2018-07-23T16:49:56.467Z,30.20
2018-07-23T16:52:25.496Z,30.20
2018-07-23T16:54:54.138Z,29.80
2018-07-23T16:57:22.675Z,29.60
2018-07-23T16:59:51.430Z,29.20
2018-07-23T17:02:20.330Z,29.70
2018-07-23T17:04:48.940Z,29.50
2018-07-23T17:07:17.703Z,29.00
2018-07-23T17:09:46.187Z,28.80
2018-07-23T17:12:14.961Z,28.90
2018-07-23T17:14:43.923Z,29.10
2018-07-23T17:17:12.565Z,28.80
2018-07-23T17:19:41.558Z,28.90
2018-07-23T17:22:10.434Z,28.80
2018-07-23T17:24:38.951Z,28.60
2018-07-23T17:27:07.655Z,28.60
2018-07-23T17:29:37.049Z,28.50
2018-07-23T17:32:05.700Z,28.30
2018-07-23T17:34:34.697Z,28.30
2018-07-23T17:37:03.482Z,28.30
2018-07-23T17:39:32.224Z,28.40
2018-07-23T17:42:00.942Z,28.30
2018-07-23T17:44:29.702Z,28.30
2018-07-23T17:46:58.343Z,28.20
2018-07-23T17:49:27.400Z,28.00
2018-07-23T17:51:56.015Z,27.90
2018-07-23T17:54:24.949Z,27.80
2018-07-23T17:56:53.933Z,27.70
2018-07-23T17:59:22.671Z,27.50
2018-07-23T18:01:51.269Z,27.40
2018-07-23T18:04:19.953Z,27.40
2018-07-23T18:06:48.687Z,27.40
2018-07-23T18:09:17.365Z,27.40
2018-07-23T18:11:45.967Z,27.30
2018-07-23T18:14:14.639Z,27.20
2018-07-23T18:16:43.186Z,27.10
2018-07-23T18:19:11.918Z,27.00
2018-07-23T18:24:09.004Z,26.70
2018-07-23T18:26:37.889Z,26.70
2018-07-23T18:29:06.613Z,26.50
2018-07-23T18:31:35.233Z,26.30
2018-07-23T18:34:03.845Z,26.20
2018-07-23T18:36:32.712Z,26.20
2018-07-23T18:39:01.651Z,26.10
2018-07-23T18:41:30.483Z,26.10
2018-07-23T18:43:59.067Z,25.80
2018-07-23T18:46:27.985Z,25.50
2018-07-23T18:49:34.252Z,25.40
2018-07-23T18:52:03.355Z,25.30
2018-07-23T18:54:32.967Z,24.90
2018-07-23T18:57:02.759Z,24.80
2018-07-23T18:59:31.657Z,24.60
2018-07-23T19:02:01.574Z,24.40
2018-07-23T19:04:30.157Z,24.30
2018-07-23T19:06:59.376Z,24.20
2018-07-23T19:09:28.637Z,24.00
2018-07-23T19:11:58.269Z,23.80
2018-07-23T19:14:27.248Z,23.60
2018-07-23T19:16:56.977Z,23.50
2018-07-23T19:19:25.626Z,23.40
2018-07-23T19:21:54.556Z,23.30
2018-07-23T19:24:23.234Z,23.10
2018-07-23T19:26:51.925Z,23.10
2018-07-23T19:29:20.603Z,23.00
2018-07-23T19:31:49.386Z,22.80
2018-07-23T19:34:18.180Z,22.70
2018-07-23T19:36:46.842Z,22.60
2018-07-23T19:39:16.777Z,22.50
2018-07-23T19:41:45.477Z,22.40
2018-07-23T19:44:14.216Z,22.30
2018-07-23T19:46:43.296Z,22.20
2018-07-23T19:49:12.130Z,22.10
2018-07-23T19:51:40.803Z,22.00
2018-07-23T19:56:38.626Z,21.90
2018-07-23T19:59:07.423Z,21.80
2018-07-23T20:01:36.192Z,21.70
2018-07-23T20:04:05.229Z,21.60
2018-07-23T20:06:33.855Z,21.50
2018-07-23T20:09:03.148Z,21.40
2018-07-23T20:11:31.831Z,21.30
2018-07-23T20:14:00.508Z,21.20
2018-07-23T20:16:29.432Z,21.00
2018-07-23T20:21:26.957Z,21.00
2018-07-23T20:23:55.701Z,20.90
2018-07-23T20:26:24.400Z,20.80
2018-07-23T20:28:53.211Z,20.80
2018-07-23T20:31:21.814Z,20.80
2018-07-23T20:33:50.756Z,20.80
2018-07-23T20:36:19.410Z,20.70
2018-07-23T20:38:48.409Z,20.80
2018-07-23T20:41:17.267Z,20.60
2018-07-23T20:43:45.910Z,20.60
2018-07-23T20:46:14.548Z,20.40
2018-07-23T20:51:11.894Z,20.20
2018-07-23T20:53:41.001Z,20.10
2018-07-23T20:56:10.036Z,20.20
2018-07-23T20:58:39.106Z,20.10
2018-07-23T21:01:07.849Z,20.10
2018-07-23T21:03:36.840Z,20.00
2018-07-23T21:06:05.643Z,19.90
2018-07-23T21:08:34.495Z,19.70
2018-07-23T21:11:03.193Z,19.60
2018-07-23T21:13:31.834Z,19.60
2018-07-23T21:16:00.419Z,19.60
2018-07-23T21:18:29.110Z,19.60
2018-07-23T21:20:57.821Z,19.70
2018-07-23T21:23:26.716Z,19.60
2018-07-23T21:25:55.427Z,19.50
2018-07-23T21:28:24.081Z,19.50
2018-07-23T21:30:52.782Z,19.50
2018-07-23T21:33:21.853Z,19.30
2018-07-23T21:35:51.062Z,19.20
2018-07-23T21:38:20.228Z,19.20
2018-07-23T21:40:48.990Z,19.10
2018-07-23T21:43:17.930Z,19.00
2018-07-23T21:45:46.440Z,18.90
2018-07-23T21:48:14.954Z,18.80
2018-07-23T21:50:43.658Z,20.40
2018-07-23T21:53:12.509Z,18.80
2018-07-23T21:55:41.011Z,18.90
2018-07-23T21:58:09.683Z,18.90
2018-07-23T22:00:38.652Z,18.90
2018-07-23T22:03:07.341Z,18.80
2018-07-23T22:05:36.048Z,18.80
2018-07-23T22:08:04.940Z,18.70
2018-07-23T22:10:33.723Z,18.70
2018-07-23T22:13:02.446Z,18.60
2018-07-23T22:15:30.980Z,18.60
2018-07-23T22:18:00.056Z,18.60
2018-07-23T22:20:28.717Z,18.50
2018-07-23T22:22:57.534Z,18.30
2018-07-23T22:25:26.580Z,18.20
2018-07-23T22:27:55.237Z,18.10
2018-07-23T22:30:23.945Z,18.00
2018-07-23T22:32:52.647Z,18.00
2018-07-23T22:35:21.307Z,18.00
2018-07-23T22:37:50.107Z,18.10
2018-07-23T22:40:18.906Z,18.00
2018-07-23T22:42:47.777Z,17.70
2018-07-23T22:45:16.495Z,17.70
2018-07-23T22:47:45.280Z,17.70
2018-07-23T22:50:13.837Z,17.70
2018-07-23T22:52:42.692Z,17.70
2018-07-23T22:55:11.236Z,17.80
2018-07-23T22:57:39.982Z,17.70
2018-07-23T23:00:08.552Z,17.80
2018-07-23T23:02:37.274Z,17.60
2018-07-23T23:05:06.265Z,17.40
2018-07-23T23:07:36.957Z,17.30
2018-07-23T23:10:05.800Z,17.30
2018-07-23T23:12:34.531Z,17.20
2018-07-23T23:15:03.164Z,17.20
2018-07-23T23:17:31.690Z,17.10
2018-07-23T23:20:00.603Z,17.10
2018-07-23T23:22:29.132Z,17.10
2018-07-23T23:24:58.010Z,17.10
2018-07-23T23:27:26.584Z,17.10
2018-07-23T23:29:55.408Z,17.10
2018-07-23T23:32:24.150Z,17.00
2018-07-23T23:34:52.674Z,17.00
2018-07-23T23:37:21.182Z,17.00
2018-07-23T23:39:50.121Z,16.80
2018-07-23T23:42:18.846Z,16.70
2018-07-23T23:44:47.466Z,16.70
2018-07-23T23:47:16.184Z,16.60
2018-07-23T23:49:45.060Z,16.70
2018-07-23T23:52:13.592Z,16.70
2018-07-23T23:54:42.839Z,16.70
2018-07-23T23:57:11.358Z,16.60
2018-07-23T23:59:39.888Z,16.50
